sensor_id;sensor_type;location;lat;lon;timestamp;pressure;altitude;pressure_sealevel;temperature;humidity
61394;BME280;48555;50.952;-0.120;2023-06-05T00:01:28;101893.03;;;12.36;78.61
61394;BME280;48555;50.952;-0.120;2023-06-05T00:03:53;101895.94;;;12.31;78.95
61394;BME280;48555;50.952;-0.120;2023-06-05T00:06:18;101898.09;;;12.24;79.79
61394;BME280;48555;50.952;-0.120;2023-06-05T00:08:44;101886.38;;;12.30;78.95
61394;BME280;48555;50.952;-0.120;2023-06-05T00:11:09;101893.13;;;12.34;78.65
61394;BME280;48555;50.952;-0.120;2023-06-05T00:13:35;101894.91;;;12.34;78.52
61394;BME280;48555;50.952;-0.120;2023-06-05T00:16:01;101889.66;;;12.34;78.26
61394;BME280;48555;50.952;-0.120;2023-06-05T00:18:29;101895.75;;;12.34;77.76
61394;BME280;48555;50.952;-0.120;2023-06-05T00:20:55;101894.13;;;12.32;78.15
61394;BME280;48555;50.952;-0.120;2023-06-05T00:23:20;101896.13;;;12.28;78.35
61394;BME280;48555;50.952;-0.120;2023-06-05T00:25:45;101896.28;;;12.25;77.99
61394;BME280;48555;50.952;-0.120;2023-06-05T00:28:11;101900.72;;;12.24;78.03
61394;BME280;48555;50.952;-0.120;2023-06-05T00:30:36;101896.47;;;12.22;78.09
61394;BME280;48555;50.952;-0.120;2023-06-05T00:33:02;101902.88;;;12.18;78.41
61394;BME280;48555;50.952;-0.120;2023-06-05T00:35:27;101897.63;;;12.18;78.39
61394;BME280;48555;50.952;-0.120;2023-06-05T00:37:52;101896.94;;;12.14;78.12
61394;BME280;48555;50.952;-0.120;2023-06-05T00:40:18;101897.81;;;12.15;77.92
61394;BME280;48555;50.952;-0.120;2023-06-05T00:42:43;101903.19;;;12.12;78.20
61394;BME280;48555;50.952;-0.120;2023-06-05T00:45:09;101899.75;;;12.11;77.94
61394;BME280;48555;50.952;-0.120;2023-06-05T00:47:34;101898.81;;;12.12;77.56
61394;BME280;48555;50.952;-0.120;2023-06-05T00:50:01;101900.56;;;12.12;77.60
61394;BME280;48555;50.952;-0.120;2023-06-05T00:52:27;101898.81;;;12.12;77.37
61394;BME280;48555;50.952;-0.120;2023-06-05T00:54:53;101901.25;;;12.15;77.17
61394;BME280;48555;50.952;-0.120;2023-06-05T00:57:19;101894.13;;;12.17;76.81
61394;BME280;48555;50.952;-0.120;2023-06-05T00:59:45;101894.13;;;12.17;76.67
61394;BME280;48555;50.952;-0.120;2023-06-05T01:02:12;101889.81;;;12.16;76.50
61394;BME280;48555;50.952;-0.120;2023-06-05T01:04:41;101887.97;;;12.18;76.06
61394;BME280;48555;50.952;-0.120;2023-06-05T01:07:11;101882.72;;;12.18;76.04
61394;BME280;48555;50.952;-0.120;2023-06-05T01:09:39;101886.06;;;12.20;75.66
61394;BME280;48555;50.952;-0.120;2023-06-05T01:12:14;101896.22;;;12.26;75.42
61394;BME280;48555;50.952;-0.120;2023-06-05T01:14:44;101892.66;;;12.27;75.01
61394;BME280;48555;50.952;-0.120;2023-06-05T01:17:13;101876.91;;;12.27;75.15
61394;BME280;48555;50.952;-0.120;2023-06-05T01:19:38;101869.31;;;12.23;74.83
61394;BME280;48555;50.952;-0.120;2023-06-05T01:22:04;101880.19;;;12.31;74.73
61394;BME280;48555;50.952;-0.120;2023-06-05T01:24:33;101881.03;;;12.32;74.91
61394;BME280;48555;50.952;-0.120;2023-06-05T01:29:43;101878.59;;;12.28;74.80
61394;BME280;48555;50.952;-0.120;2023-06-05T01:32:17;101874.28;;;12.27;74.77
61394;BME280;48555;50.952;-0.120;2023-06-05T01:34:44;101867.53;;;12.23;74.94
61394;BME280;48555;50.952;-0.120;2023-06-05T01:37:14;101864.06;;;12.23;74.98
61394;BME280;48555;50.952;-0.120;2023-06-05T01:39:45;101860.78;;;12.19;75.23
61394;BME280;48555;50.952;-0.120;2023-06-05T01:42:11;101851.88;;;12.08;75.80
61394;BME280;48555;50.952;-0.120;2023-06-05T01:44:39;101862.81;;;12.00;76.27
61394;BME280;48555;50.952;-0.120;2023-06-05T01:47:05;101856.00;;;11.97;76.51
61394;BME280;48555;50.952;-0.120;2023-06-05T01:49:31;101860.25;;;11.84;77.75
61394;BME280;48555;50.952;-0.120;2023-06-05T01:51:56;101850.56;;;11.86;77.45
61394;BME280;48555;50.952;-0.120;2023-06-05T01:54:22;101863.72;;;11.85;77.53
61394;BME280;48555;50.952;-0.120;2023-06-05T01:56:48;101857.75;;;11.82;77.61
61394;BME280;48555;50.952;-0.120;2023-06-05T01:59:14;101848.72;;;11.72;78.65
61394;BME280;48555;50.952;-0.120;2023-06-05T02:01:41;101842.63;;;11.72;78.65
61394;BME280;48555;50.952;-0.120;2023-06-05T02:04:09;101851.34;;;11.72;78.16
61394;BME280;48555;50.952;-0.120;2023-06-05T02:06:35;101853.00;;;11.73;78.50
61394;BME280;48555;50.952;-0.120;2023-06-05T02:09:09;101851.25;;;11.74;78.51
61394;BME280;48555;50.952;-0.120;2023-06-05T02:11:36;101842.72;;;11.70;78.44
61394;BME280;48555;50.952;-0.120;2023-06-05T02:14:05;101848.91;;;11.69;78.38
61394;BME280;48555;50.952;-0.120;2023-06-05T02:16:39;101848.06;;;11.69;78.52
61394;BME280;48555;50.952;-0.120;2023-06-05T02:19:05;101839.38;;;11.68;78.27
61394;BME280;48555;50.952;-0.120;2023-06-05T02:21:32;101833.34;;;11.66;78.26
61394;BME280;48555;50.952;-0.120;2023-06-05T02:24:01;101842.81;;;11.69;78.23
61394;BME280;48555;50.952;-0.120;2023-06-05T02:26:26;101842.72;;;11.70;78.29
61394;BME280;48555;50.952;-0.120;2023-06-05T02:28:52;101837.59;;;11.69;78.52
61394;BME280;48555;50.952;-0.120;2023-06-05T02:31:23;101836.91;;;11.65;78.35
61394;BME280;48555;50.952;-0.120;2023-06-05T02:33:53;101837.09;;;11.62;78.57
61394;BME280;48555;50.952;-0.120;2023-06-05T02:36:19;101831.47;;;11.54;79.56
61394;BME280;48555;50.952;-0.120;2023-06-05T02:38:44;101836.13;;;11.49;79.53
61394;BME280;48555;50.952;-0.120;2023-06-05T02:41:10;101826.66;;;11.46;79.83
61394;BME280;48555;50.952;-0.120;2023-06-05T02:43:36;101825.06;;;11.44;79.79
61394;BME280;48555;50.952;-0.120;2023-06-05T02:46:01;101832.00;;;11.45;79.75
61394;BME280;48555;50.952;-0.120;2023-06-05T02:48:27;101827.50;;;11.47;79.92
61394;BME280;48555;50.952;-0.120;2023-06-05T02:50:52;101830.81;;;11.50;79.73
61394;BME280;48555;50.952;-0.120;2023-06-05T02:53:17;101829.19;;;11.48;80.14
61394;BME280;48555;50.952;-0.120;2023-06-05T02:55:43;101828.44;;;11.46;80.33
61394;BME280;48555;50.952;-0.120;2023-06-05T02:58:10;101829.63;;;11.40;80.90
61394;BME280;48555;50.952;-0.120;2023-06-05T03:00:38;101816.47;;;11.42;80.41
61394;BME280;48555;50.952;-0.120;2023-06-05T03:03:03;101820.75;;;11.43;80.81
61394;BME280;48555;50.952;-0.120;2023-06-05T03:05:31;101811.13;;;11.43;80.37
61394;BME280;48555;50.952;-0.120;2023-06-05T03:07:57;101815.09;;;11.50;80.00
61394;BME280;48555;50.952;-0.120;2023-06-05T03:10:22;101820.59;;;11.46;80.41
61394;BME280;48555;50.952;-0.120;2023-06-05T03:12:47;101826.34;;;11.36;81.32
61394;BME280;48555;50.952;-0.120;2023-06-05T03:15:13;101810.53;;;11.38;80.79
61394;BME280;48555;50.952;-0.120;2023-06-05T03:17:40;101806.44;;;11.34;81.57
61394;BME280;48555;50.952;-0.120;2023-06-05T03:20:05;101817.56;;;11.37;81.19
61394;BME280;48555;50.952;-0.120;2023-06-05T03:22:34;101807.44;;;11.31;81.74
61394;BME280;48555;50.952;-0.120;2023-06-05T03:24:59;101801.44;;;11.29;81.39
61394;BME280;48555;50.952;-0.120;2023-06-05T03:27:25;101808.97;;;11.35;81.11
61394;BME280;48555;50.952;-0.120;2023-06-05T03:29:50;101802.38;;;11.28;81.46
61394;BME280;48555;50.952;-0.120;2023-06-05T03:32:15;101815.06;;;11.20;82.50
61394;BME280;48555;50.952;-0.120;2023-06-05T03:34:41;101805.53;;;11.19;82.29
61394;BME280;48555;50.952;-0.120;2023-06-05T03:37:08;101808.63;;;11.26;82.39
61394;BME280;48555;50.952;-0.120;2023-06-05T03:39:33;101811.19;;;11.27;82.30
61394;BME280;48555;50.952;-0.120;2023-06-05T03:41:59;101812.09;;;11.26;82.05
61394;BME280;48555;50.952;-0.120;2023-06-05T03:44:25;101807.91;;;11.24;82.19
61394;BME280;48555;50.952;-0.120;2023-06-05T03:46:51;101806.84;;;11.26;82.08
61394;BME280;48555;50.952;-0.120;2023-06-05T03:49:16;101801.72;;;11.25;82.54
61394;BME280;48555;50.952;-0.120;2023-06-05T03:51:41;101797.31;;;11.25;82.37
61394;BME280;48555;50.952;-0.120;2023-06-05T03:54:09;101803.41;;;11.26;82.41
61394;BME280;48555;50.952;-0.120;2023-06-05T03:56:35;101803.97;;;11.31;82.37
61394;BME280;48555;50.952;-0.120;2023-06-05T03:59:04;101797.81;;;11.32;81.93
61394;BME280;48555;50.952;-0.120;2023-06-05T04:01:44;101799.09;;;11.25;82.60
61394;BME280;48555;50.952;-0.120;2023-06-05T04:04:09;101797.06;;;11.30;82.20
61394;BME280;48555;50.952;-0.120;2023-06-05T04:06:35;101806.69;;;11.29;82.58
61394;BME280;48555;50.952;-0.120;2023-06-05T04:09:02;101802.59;;;11.40;82.15
61394;BME280;48555;50.952;-0.120;2023-06-05T04:11:34;101807.91;;;11.38;82.27
61394;BME280;48555;50.952;-0.120;2023-06-05T04:13:59;101805.88;;;11.43;81.90
61394;BME280;48555;50.952;-0.120;2023-06-05T04:16:25;101806.25;;;11.37;82.28
61394;BME280;48555;50.952;-0.120;2023-06-05T04:18:50;101800.47;;;11.46;81.95
61394;BME280;48555;50.952;-0.120;2023-06-05T04:21:15;101800.28;;;11.49;82.03
61394;BME280;48555;50.952;-0.120;2023-06-05T04:23:41;101804.03;;;11.45;82.25
61394;BME280;48555;50.952;-0.120;2023-06-05T04:26:06;101804.69;;;11.49;82.00
61394;BME280;48555;50.952;-0.120;2023-06-05T04:28:32;101816.16;;;11.62;81.84
61394;BME280;48555;50.952;-0.120;2023-06-05T04:30:59;101798.66;;;11.63;81.64
61394;BME280;48555;50.952;-0.120;2023-06-05T04:33:24;101798.84;;;11.74;81.14
61394;BME280;48555;50.952;-0.120;2023-06-05T04:35:49;101794.72;;;11.84;81.04
61394;BME280;48555;50.952;-0.120;2023-06-05T04:38:15;101788.13;;;11.93;80.63
61394;BME280;48555;50.952;-0.120;2023-06-05T04:40:46;101795.44;;;12.16;80.33
61394;BME280;48555;50.952;-0.120;2023-06-05T04:43:13;101788.09;;;12.50;79.33
61394;BME280;48555;50.952;-0.120;2023-06-05T04:45:39;101793.72;;;12.85;78.32
61394;BME280;48555;50.952;-0.120;2023-06-05T04:48:05;101793.84;;;13.24;76.96
61394;BME280;48555;50.952;-0.120;2023-06-05T04:50:30;101792.44;;;13.45;75.38
61394;BME280;48555;50.952;-0.120;2023-06-05T04:52:56;101799.31;;;13.86;74.36
61394;BME280;48555;50.952;-0.120;2023-06-05T04:55:21;101796.94;;;14.20;72.67
61394;BME280;48555;50.952;-0.120;2023-06-05T04:57:47;101811.31;;;14.52;70.84
61394;BME280;48555;50.952;-0.120;2023-06-05T05:00:14;101814.69;;;14.91;70.44
61394;BME280;48555;50.952;-0.120;2023-06-05T05:02:40;101808.16;;;15.08;68.31
61394;BME280;48555;50.952;-0.120;2023-06-05T05:05:06;101810.78;;;15.32;66.81
61394;BME280;48555;50.952;-0.120;2023-06-05T05:07:31;101808.34;;;15.64;65.68
61394;BME280;48555;50.952;-0.120;2023-06-05T05:09:58;101810.81;;;15.90;64.56
61394;BME280;48555;50.952;-0.120;2023-06-05T05:12:23;101813.47;;;15.90;63.29
61394;BME280;48555;50.952;-0.120;2023-06-05T05:14:48;101806.50;;;16.11;62.70
61394;BME280;48555;50.952;-0.120;2023-06-05T05:17:14;101808.41;;;16.32;61.79
61394;BME280;48555;50.952;-0.120;2023-06-05T05:19:42;101810.47;;;16.40;60.99
61394;BME280;48555;50.952;-0.120;2023-06-05T05:22:07;101814.38;;;16.68;60.79
61394;BME280;48555;50.952;-0.120;2023-06-05T05:24:33;101815.06;;;16.92;59.71
61394;BME280;48555;50.952;-0.120;2023-06-05T05:26:58;101814.63;;;17.08;58.74
61394;BME280;48555;50.952;-0.120;2023-06-05T05:29:23;101815.56;;;17.18;58.00
61394;BME280;48555;50.952;-0.120;2023-06-05T05:31:49;101814.25;;;17.45;57.50
61394;BME280;48555;50.952;-0.120;2023-06-05T05:34:16;101802.69;;;17.46;56.78
61394;BME280;48555;50.952;-0.120;2023-06-05T05:36:41;101812.81;;;17.41;56.21
61394;BME280;48555;50.952;-0.120;2023-06-05T05:39:07;101812.75;;;17.52;56.00
61394;BME280;48555;50.952;-0.120;2023-06-05T05:41:33;101812.03;;;17.71;55.67
61394;BME280;48555;50.952;-0.120;2023-06-05T05:43:58;101800.38;;;17.74;54.79
61394;BME280;48555;50.952;-0.120;2023-06-05T05:46:24;101824.34;;;17.61;55.06
61394;BME280;48555;50.952;-0.120;2023-06-05T05:48:49;101828.25;;;18.08;54.44
61394;BME280;48555;50.952;-0.120;2023-06-05T05:51:14;101821.53;;;17.95;53.58
61394;BME280;48555;50.952;-0.120;2023-06-05T05:53:40;101821.88;;;18.11;53.28
61394;BME280;48555;50.952;-0.120;2023-06-05T05:56:05;101823.09;;;18.37;52.72
61394;BME280;48555;50.952;-0.120;2023-06-05T05:58:31;101831.38;;;18.64;52.35
61394;BME280;48555;50.952;-0.120;2023-06-05T06:00:59;101834.97;;;18.53;52.20
61394;BME280;48555;50.952;-0.120;2023-06-05T06:03:25;101833.75;;;18.67;51.68
61394;BME280;48555;50.952;-0.120;2023-06-05T06:05:55;101837.84;;;18.71;51.06
61394;BME280;48555;50.952;-0.120;2023-06-05T06:08:21;101840.09;;;18.75;50.63
61394;BME280;48555;50.952;-0.120;2023-06-05T06:10:47;101846.56;;;18.61;50.56
61394;BME280;48555;50.952;-0.120;2023-06-05T06:13:13;101843.47;;;18.47;51.05
61394;BME280;48555;50.952;-0.120;2023-06-05T06:15:38;101847.19;;;18.34;50.77
61394;BME280;48555;50.952;-0.120;2023-06-05T06:18:07;101850.63;;;18.25;50.69
61394;BME280;48555;50.952;-0.120;2023-06-05T06:20:32;101842.03;;;18.02;51.19
61394;BME280;48555;50.952;-0.120;2023-06-05T06:23:01;101836.97;;;18.20;50.98
61394;BME280;48555;50.952;-0.120;2023-06-05T06:25:28;101842.13;;;18.22;50.27
61394;BME280;48555;50.952;-0.120;2023-06-05T06:28:00;101845.91;;;18.59;50.04
61394;BME280;48555;50.952;-0.120;2023-06-05T06:30:25;101834.19;;;18.72;49.80
61394;BME280;48555;50.952;-0.120;2023-06-05T06:32:51;101838.88;;;18.89;49.61
61394;BME280;48555;50.952;-0.120;2023-06-05T06:35:16;101837.22;;;19.27;48.75
61394;BME280;48555;50.952;-0.120;2023-06-05T06:37:42;101844.16;;;19.57;47.74
61394;BME280;48555;50.952;-0.120;2023-06-05T06:40:08;101842.19;;;19.88;47.09
61394;BME280;48555;50.952;-0.120;2023-06-05T06:42:35;101845.31;;;19.45;48.20
61394;BME280;48555;50.952;-0.120;2023-06-05T06:45:00;101844.72;;;19.70;47.64
61394;BME280;48555;50.952;-0.120;2023-06-05T06:47:26;101852.72;;;20.08;46.96
61394;BME280;48555;50.952;-0.120;2023-06-05T06:49:52;101848.16;;;20.00;46.39
61394;BME280;48555;50.952;-0.120;2023-06-05T06:52:18;101858.94;;;19.89;46.90
61394;BME280;48555;50.952;-0.120;2023-06-05T06:54:45;101858.09;;;20.35;46.31
61394;BME280;48555;50.952;-0.120;2023-06-05T06:57:10;101847.78;;;20.60;45.68
61394;BME280;48555;50.952;-0.120;2023-06-05T06:59:37;101852.19;;;20.41;45.34
61394;BME280;48555;50.952;-0.120;2023-06-05T07:02:14;101857.75;;;20.11;45.28
61394;BME280;48555;50.952;-0.120;2023-06-05T07:04:40;101862.75;;;19.67;46.63
61394;BME280;48555;50.952;-0.120;2023-06-05T07:07:10;101863.97;;;19.92;46.34
61394;BME280;48555;50.952;-0.120;2023-06-05T07:09:37;101858.25;;;19.87;46.36
61394;BME280;48555;50.952;-0.120;2023-06-05T07:12:02;101865.09;;;19.60;46.41
61394;BME280;48555;50.952;-0.120;2023-06-05T07:14:31;101867.50;;;19.54;46.94
61394;BME280;48555;50.952;-0.120;2023-06-05T07:16:58;101860.66;;;19.22;47.28
61394;BME280;48555;50.952;-0.120;2023-06-05T07:19:28;101859.50;;;18.86;47.89
61394;BME280;48555;50.952;-0.120;2023-06-05T07:21:58;101864.78;;;18.76;48.73
61394;BME280;48555;50.952;-0.120;2023-06-05T07:24:24;101866.38;;;18.98;48.44
61394;BME280;48555;50.952;-0.120;2023-06-05T07:26:54;101875.03;;;19.29;48.26
61394;BME280;48555;50.952;-0.120;2023-06-05T07:29:21;101875.16;;;19.37;48.05
61394;BME280;48555;50.952;-0.120;2023-06-05T07:31:47;101871.41;;;19.30;47.73
61394;BME280;48555;50.952;-0.120;2023-06-05T07:34:12;101869.44;;;19.13;47.97
61394;BME280;48555;50.952;-0.120;2023-06-05T07:36:38;101874.47;;;19.16;48.48
61394;BME280;48555;50.952;-0.120;2023-06-05T07:39:04;101874.72;;;19.03;48.43
61394;BME280;48555;50.952;-0.120;2023-06-05T07:41:30;101873.22;;;19.00;48.58
61394;BME280;48555;50.952;-0.120;2023-06-05T07:43:55;101877.13;;;19.16;48.83
61394;BME280;48555;50.952;-0.120;2023-06-05T07:46:20;101866.75;;;18.93;48.76
61394;BME280;48555;50.952;-0.120;2023-06-05T07:48:46;101861.78;;;19.19;48.76
61394;BME280;48555;50.952;-0.120;2023-06-05T07:51:11;101861.47;;;19.51;48.41
61394;BME280;48555;50.952;-0.120;2023-06-05T07:53:36;101867.50;;;19.54;47.88
61394;BME280;48555;50.952;-0.120;2023-06-05T07:56:02;101873.78;;;19.72;47.99
61394;BME280;48555;50.952;-0.120;2023-06-05T07:58:27;101868.59;;;19.80;47.64
61394;BME280;48555;50.952;-0.120;2023-06-05T08:00:54;101878.91;;;19.64;47.72
61394;BME280;48555;50.952;-0.120;2023-06-05T08:03:22;101860.22;;;19.46;47.61
61394;BME280;48555;50.952;-0.120;2023-06-05T08:05:51;101869.03;;;19.37;48.18
61394;BME280;48555;50.952;-0.120;2023-06-05T08:08:17;101860.66;;;19.22;48.39
61394;BME280;48555;50.952;-0.120;2023-06-05T08:10:44;101858.84;;;19.13;48.38
61394;BME280;48555;50.952;-0.120;2023-06-05T08:13:09;101864.53;;;18.98;48.80
61394;BME280;48555;50.952;-0.120;2023-06-05T08:15:35;101866.38;;;18.98;48.90
61394;BME280;48555;50.952;-0.120;2023-06-05T08:18:01;101863.78;;;18.36;49.65
61394;BME280;48555;50.952;-0.120;2023-06-05T08:20:26;101875.84;;;18.50;49.93
61394;BME280;48555;50.952;-0.120;2023-06-05T08:22:52;101868.34;;;18.65;49.57
61394;BME280;48555;50.952;-0.120;2023-06-05T08:25:18;101880.53;;;18.77;49.42
61394;BME280;48555;50.952;-0.120;2023-06-05T08:27:43;101881.94;;;18.81;49.25
61394;BME280;48555;50.952;-0.120;2023-06-05T08:30:09;101880.84;;;18.94;48.81
61394;BME280;48555;50.952;-0.120;2023-06-05T08:32:34;101875.25;;;18.77;48.93
61394;BME280;48555;50.952;-0.120;2023-06-05T08:35:00;101871.63;;;18.88;49.61
61394;BME280;48555;50.952;-0.120;2023-06-05T08:37:25;101856.72;;;18.97;49.30
61394;BME280;48555;50.952;-0.120;2023-06-05T08:39:53;101854.38;;;19.03;48.58
61394;BME280;48555;50.952;-0.120;2023-06-05T08:42:19;101861.91;;;18.98;48.31
61394;BME280;48555;50.952;-0.120;2023-06-05T08:44:48;101865.66;;;18.96;48.81
61394;BME280;48555;50.952;-0.120;2023-06-05T08:47:14;101861.19;;;18.96;48.82
61394;BME280;48555;50.952;-0.120;2023-06-05T08:49:41;101857.59;;;18.97;49.37
61394;BME280;48555;50.952;-0.120;2023-06-05T08:52:07;101861.06;;;18.98;48.92
61394;BME280;48555;50.952;-0.120;2023-06-05T08:54:37;101860.66;;;19.12;49.12
61394;BME280;48555;50.952;-0.120;2023-06-05T08:57:04;101859.88;;;18.71;49.16
61394;BME280;48555;50.952;-0.120;2023-06-05T08:59:30;101853.84;;;18.29;50.28
61394;BME280;48555;50.952;-0.120;2023-06-05T09:01:56;101857.03;;;18.53;50.49
61394;BME280;48555;50.952;-0.120;2023-06-05T09:04:22;101853.66;;;18.92;49.65
61394;BME280;48555;50.952;-0.120;2023-06-05T09:06:50;101859.09;;;19.00;49.01
61394;BME280;48555;50.952;-0.120;2023-06-05T09:09:18;101854.16;;;18.76;49.48
61394;BME280;48555;50.952;-0.120;2023-06-05T09:11:44;101851.69;;;18.84;49.03
61394;BME280;48555;50.952;-0.120;2023-06-05T09:14:09;101853.84;;;18.29;50.46
61394;BME280;48555;50.952;-0.120;2023-06-05T09:16:40;101854.59;;;18.81;49.83
61394;BME280;48555;50.952;-0.120;2023-06-05T09:19:08;101846.81;;;18.99;49.34
61394;BME280;48555;50.952;-0.120;2023-06-05T09:21:33;101846.00;;;18.98;49.33
61394;BME280;48555;50.952;-0.120;2023-06-05T09:27:03;101847.97;;;19.16;48.90
61394;BME280;48555;50.952;-0.120;2023-06-05T09:29:34;101850.84;;;19.03;48.70
61394;BME280;48555;50.952;-0.120;2023-06-05T09:32:21;101853.81;;;19.39;48.31
61394;BME280;48555;50.952;-0.120;2023-06-05T09:34:55;101841.50;;;19.57;47.71
61394;BME280;48555;50.952;-0.120;2023-06-05T09:37:36;101836.94;;;19.01;49.14
61394;BME280;48555;50.952;-0.120;2023-06-05T09:40:03;101846.00;;;19.08;49.29
61394;BME280;48555;50.952;-0.120;2023-06-05T09:42:34;101856.88;;;19.44;48.33
61394;BME280;48555;50.952;-0.120;2023-06-05T09:45:00;101862.19;;;19.54;48.18
61394;BME280;48555;50.952;-0.120;2023-06-05T09:47:26;101863.28;;;19.70;48.52
61394;BME280;48555;50.952;-0.120;2023-06-05T09:49:51;101858.41;;;19.37;48.60
61394;BME280;48555;50.952;-0.120;2023-06-05T09:52:16;101853.25;;;19.16;49.20
61394;BME280;48555;50.952;-0.120;2023-06-05T09:54:44;101850.88;;;19.13;49.48
61394;BME280;48555;50.952;-0.120;2023-06-05T09:57:12;101845.44;;;19.04;49.59
61394;BME280;48555;50.952;-0.120;2023-06-05T09:59:53;101845.19;;;19.27;49.33
61394;BME280;48555;50.952;-0.120;2023-06-05T10:02:33;101854.63;;;19.59;48.66
61394;BME280;48555;50.952;-0.120;2023-06-05T10:05:01;101846.28;;;19.24;49.19
61394;BME280;48555;50.952;-0.120;2023-06-05T10:07:30;101837.75;;;19.40;49.62
61394;BME280;48555;50.952;-0.120;2023-06-05T10:09:56;101856.03;;;19.63;48.64
61394;BME280;48555;50.952;-0.120;2023-06-05T10:12:23;101844.84;;;19.49;48.98
61394;BME280;48555;50.952;-0.120;2023-06-05T10:14:49;101842.78;;;19.43;48.44
61394;BME280;48555;50.952;-0.120;2023-06-05T10:17:15;101856.31;;;19.11;50.27
61394;BME280;48555;50.952;-0.120;2023-06-05T10:19:42;101853.78;;;19.58;49.33
61394;BME280;48555;50.952;-0.120;2023-06-05T10:22:10;101850.31;;;19.67;48.75
61394;BME280;48555;50.952;-0.120;2023-06-05T10:24:38;101850.31;;;19.67;48.95
61394;BME280;48555;50.952;-0.120;2023-06-05T10:32:36;101848.41;;;20.07;48.50
61394;BME280;48555;50.952;-0.120;2023-06-05T10:38:18;101849.34;;;20.53;46.86
61394;BME280;48555;50.952;-0.120;2023-06-05T10:40:48;101850.72;;;20.57;46.97
61394;BME280;48555;50.952;-0.120;2023-06-05T10:43:26;101845.94;;;20.33;46.93
61394;BME280;48555;50.952;-0.120;2023-06-05T10:45:52;101851.31;;;20.41;46.72
61394;BME280;48555;50.952;-0.120;2023-06-05T10:48:18;101842.50;;;20.13;47.76
61394;BME280;48555;50.952;-0.120;2023-06-05T10:50:43;101845.06;;;20.32;47.92
61394;BME280;48555;50.952;-0.120;2023-06-05T10:53:41;101836.91;;;20.43;47.86
61394;BME280;48555;50.952;-0.120;2023-06-05T10:56:06;101830.19;;;20.49;47.01
61394;BME280;48555;50.952;-0.120;2023-06-05T10:58:32;101832.09;;;20.29;47.17
61394;BME280;48555;50.952;-0.120;2023-06-05T11:01:24;101831.72;;;19.77;48.31
61394;BME280;48555;50.952;-0.120;2023-06-05T11:03:57;101822.16;;;20.31;47.80
61394;BME280;48555;50.952;-0.120;2023-06-05T11:06:23;101821.88;;;20.34;47.64
61394;BME280;48555;50.952;-0.120;2023-06-05T11:09:14;101831.59;;;20.53;46.87
61394;BME280;48555;50.952;-0.120;2023-06-05T11:12:02;101822.75;;;20.53;46.62
61394;BME280;48555;50.952;-0.120;2023-06-05T11:14:46;101816.88;;;20.59;46.49
61394;BME280;48555;50.952;-0.120;2023-06-05T11:17:33;101818.34;;;20.71;46.86
61394;BME280;48555;50.952;-0.120;2023-06-05T11:20:00;101818.13;;;20.82;46.40
61394;BME280;48555;50.952;-0.120;2023-06-05T11:22:26;101816.31;;;20.83;46.12
61394;BME280;48555;50.952;-0.120;2023-06-05T11:27:50;101815.69;;;21.07;47.09
61394;BME280;48555;50.952;-0.120;2023-06-05T11:30:17;101811.50;;;20.69;46.58
61394;BME280;48555;50.952;-0.120;2023-06-05T11:32:43;101797.06;;;20.43;47.46
61394;BME280;48555;50.952;-0.120;2023-06-05T11:35:09;101809.19;;;20.28;47.62
61394;BME280;48555;50.952;-0.120;2023-06-05T11:37:35;101811.78;;;20.66;47.15
61394;BME280;48555;50.952;-0.120;2023-06-05T11:40:02;101810.09;;;20.37;46.40
61394;BME280;48555;50.952;-0.120;2023-06-05T11:42:34;101802.72;;;20.58;46.58
61394;BME280;48555;50.952;-0.120;2023-06-05T11:45:00;101793.34;;;20.64;46.51
61394;BME280;48555;50.952;-0.120;2023-06-05T11:47:26;101804.66;;;20.66;47.02
61394;BME280;48555;50.952;-0.120;2023-06-05T11:49:54;101793.50;;;20.98;46.58
61394;BME280;48555;50.952;-0.120;2023-06-05T11:52:21;101795.78;;;20.93;46.18
61394;BME280;48555;50.952;-0.120;2023-06-05T11:54:47;101806.88;;;21.06;45.44
61394;BME280;48555;50.952;-0.120;2023-06-05T11:57:42;101805.88;;;21.07;45.44
61394;BME280;48555;50.952;-0.120;2023-06-05T12:00:09;101794.31;;;21.17;44.99
61394;BME280;48555;50.952;-0.120;2023-06-05T12:02:35;101795.84;;;21.19;44.62
61394;BME280;48555;50.952;-0.120;2023-06-05T12:05:01;101798.94;;;21.32;45.40
61394;BME280;48555;50.952;-0.120;2023-06-05T12:07:29;101789.97;;;21.33;45.42
61394;BME280;48555;50.952;-0.120;2023-06-05T12:09:56;101777.94;;;21.03;45.96
61394;BME280;48555;50.952;-0.120;2023-06-05T12:12:23;101785.78;;;21.31;45.80
61394;BME280;48555;50.952;-0.120;2023-06-05T12:14:49;101792.34;;;21.37;45.44
61394;BME280;48555;50.952;-0.120;2023-06-05T12:17:14;101779.31;;;21.33;45.28
61394;BME280;48555;50.952;-0.120;2023-06-05T12:19:40;101784.50;;;21.17;45.50
61394;BME280;48555;50.952;-0.120;2023-06-05T12:22:07;101791.72;;;21.25;45.46
61394;BME280;48555;50.952;-0.120;2023-06-05T12:24:34;101779.16;;;21.35;45.38
61394;BME280;48555;50.952;-0.120;2023-06-05T12:27:01;101783.22;;;21.39;45.80
61394;BME280;48555;50.952;-0.120;2023-06-05T12:29:37;101772.09;;;21.44;46.16
61394;BME280;48555;50.952;-0.120;2023-06-05T12:32:24;101766.78;;;21.26;45.75
61394;BME280;48555;50.952;-0.120;2023-06-05T12:34:51;101775.19;;;21.13;45.54
61394;BME280;48555;50.952;-0.120;2023-06-05T12:37:27;101780.19;;;21.16;44.86
61394;BME280;48555;50.952;-0.120;2023-06-05T12:39:55;101781.72;;;21.37;44.74
61394;BME280;48555;50.952;-0.120;2023-06-05T12:42:21;101773.84;;;21.35;45.10
61394;BME280;48555;50.952;-0.120;2023-06-05T12:44:47;101788.00;;;21.36;45.33
61394;BME280;48555;50.952;-0.120;2023-06-05T12:47:12;101776.59;;;21.43;45.18
61394;BME280;48555;50.952;-0.120;2023-06-05T12:49:38;101783.13;;;21.31;46.11
61394;BME280;48555;50.952;-0.120;2023-06-05T12:52:06;101777.59;;;21.42;45.89
61394;BME280;48555;50.952;-0.120;2023-06-05T12:54:32;101778.75;;;21.22;45.03
61394;BME280;48555;50.952;-0.120;2023-06-05T12:56:57;101778.84;;;21.12;45.49
61394;BME280;48555;50.952;-0.120;2023-06-05T12:59:23;101765.47;;;20.86;46.37